sensor_id;sensor_type;location;lat;lon;timestamp;temperature;humidity
13091;DHT22;6611;52.604;13.438;2022-08-16T00:04:49;20.41;89.25
13091;DHT22;6611;52.604;13.438;2022-08-16T00:09:50;20.45;88.24
13091;DHT22;6611;52.604;13.438;2022-08-16T00:14:52;20.25;89.10
13091;DHT22;6611;52.604;13.438;2022-08-16T00:19:55;20.27;88.81
13091;DHT22;6611;52.604;13.438;2022-08-16T00:25:02;20.17;89.54
13091;DHT22;6611;52.604;13.438;2022-08-16T00:30:06;20.19;89.12
13091;DHT22;6611;52.604;13.438;2022-08-16T00:35:13;20.19;89.14
13091;DHT22;6611;52.604;13.438;2022-08-16T00:40:20;20.16;89.75
13091;DHT22;6611;52.604;13.438;2022-08-16T00:45:40;20.17;89.66
13091;DHT22;6611;52.604;13.438;2022-08-16T00:50:45;20.13;89.54
13091;DHT22;6611;52.604;13.438;2022-08-16T00:55:49;20.08;89.57
13091;DHT22;6611;52.604;13.438;2022-08-16T01:00:52;20.10;89.50
13091;DHT22;6611;52.604;13.438;2022-08-16T01:05:55;20.04;89.52
13091;DHT22;6611;52.604;13.438;2022-08-16T01:10:57;19.98;89.23
13091;DHT22;6611;52.604;13.438;2022-08-16T01:16:00;19.88;88.92
13091;DHT22;6611;52.604;13.438;2022-08-16T01:21:13;19.85;88.91
13091;DHT22;6611;52.604;13.438;2022-08-16T01:26:18;19.77;89.18
13091;DHT22;6611;52.604;13.438;2022-08-16T01:31:21;19.70;89.47
13091;DHT22;6611;52.604;13.438;2022-08-16T01:36:23;19.73;88.88
13091;DHT22;6611;52.604;13.438;2022-08-16T01:41:28;19.68;89.09
13091;DHT22;6611;52.604;13.438;2022-08-16T01:46:34;19.68;89.17
13091;DHT22;6611;52.604;13.438;2022-08-16T01:51:38;19.67;88.73
13091;DHT22;6611;52.604;13.438;2022-08-16T01:56:41;19.57;89.02
13091;DHT22;6611;52.604;13.438;2022-08-16T02:01:43;19.54;89.23
13091;DHT22;6611;52.604;13.438;2022-08-16T02:06:45;19.47;89.15
13091;DHT22;6611;52.604;13.438;2022-08-16T02:11:51;19.37;89.22
13091;DHT22;6611;52.604;13.438;2022-08-16T02:16:53;19.36;89.60
13091;DHT22;6611;52.604;13.438;2022-08-16T02:21:55;19.30;89.16
13091;DHT22;6611;52.604;13.438;2022-08-16T02:26:59;19.31;89.28
13091;DHT22;6611;52.604;13.438;2022-08-16T02:32:01;19.24;89.23
13091;DHT22;6611;52.604;13.438;2022-08-16T02:37:03;19.19;89.77
13091;DHT22;6611;52.604;13.438;2022-08-16T02:42:06;19.13;89.27
13091;DHT22;6611;52.604;13.438;2022-08-16T02:47:07;19.15;88.95
13091;DHT22;6611;52.604;13.438;2022-08-16T02:52:09;18.98;88.74
13091;DHT22;6611;52.604;13.438;2022-08-16T02:57:12;18.98;88.43
13091;DHT22;6611;52.604;13.438;2022-08-16T03:02:14;18.89;88.87
13091;DHT22;6611;52.604;13.438;2022-08-16T03:07:16;18.95;88.59
13091;DHT22;6611;52.604;13.438;2022-08-16T03:12:20;18.88;88.40
13091;DHT22;6611;52.604;13.438;2022-08-16T03:17:22;18.75;88.32
13091;DHT22;6611;52.604;13.438;2022-08-16T03:22:25;18.67;89.35
13091;DHT22;6611;52.604;13.438;2022-08-16T03:27:28;18.63;89.22
13091;DHT22;6611;52.604;13.438;2022-08-16T03:32:30;18.70;88.60
13091;DHT22;6611;52.604;13.438;2022-08-16T03:37:32;18.61;88.53
13091;DHT22;6611;52.604;13.438;2022-08-16T03:42:36;18.57;88.98
13091;DHT22;6611;52.604;13.438;2022-08-16T03:47:37;18.51;89.20
13091;DHT22;6611;52.604;13.438;2022-08-16T03:52:39;18.57;88.84
13091;DHT22;6611;52.604;13.438;2022-08-16T03:57:43;18.47;89.12
13091;DHT22;6611;52.604;13.438;2022-08-16T04:02:45;18.49;89.01
13091;DHT22;6611;52.604;13.438;2022-08-16T04:07:46;18.40;89.19
13091;DHT22;6611;52.604;13.438;2022-08-16T04:12:49;18.43;89.36
13091;DHT22;6611;52.604;13.438;2022-08-16T04:17:51;18.51;88.92
13091;DHT22;6611;52.604;13.438;2022-08-16T04:22:54;18.51;89.18
13091;DHT22;6611;52.604;13.438;2022-08-16T04:27:57;18.51;88.85
13091;DHT22;6611;52.604;13.438;2022-08-16T04:32:58;18.64;88.51
13091;DHT22;6611;52.604;13.438;2022-08-16T04:38:00;18.67;88.84
13091;DHT22;6611;52.604;13.438;2022-08-16T04:43:03;18.61;89.04
13091;DHT22;6611;52.604;13.438;2022-08-16T04:48:05;18.72;89.35
13091;DHT22;6611;52.604;13.438;2022-08-16T04:53:07;18.91;88.72
13091;DHT22;6611;52.604;13.438;2022-08-16T04:58:10;18.99;88.67
13091;DHT22;6611;52.604;13.438;2022-08-16T05:03:12;19.13;88.75
13091;DHT22;6611;52.604;13.438;2022-08-16T05:08:13;19.57;88.28
13091;DHT22;6611;52.604;13.438;2022-08-16T05:13:17;20.08;86.69
13091;DHT22;6611;52.604;13.438;2022-08-16T05:18:18;20.22;86.95
13091;DHT22;6611;52.604;13.438;2022-08-16T05:23:20;20.33;86.77
13091;DHT22;6611;52.604;13.438;2022-08-16T05:28:23;20.51;86.21
13091;DHT22;6611;52.604;13.438;2022-08-16T05:33:25;20.57;86.25
13091;DHT22;6611;52.604;13.438;2022-08-16T05:38:26;20.60;86.71
13091;DHT22;6611;52.604;13.438;2022-08-16T05:43:29;20.74;86.90
13091;DHT22;6611;52.604;13.438;2022-08-16T05:48:31;20.92;86.79
13091;DHT22;6611;52.604;13.438;2022-08-16T05:53:32;20.94;87.56
13091;DHT22;6611;52.604;13.438;2022-08-16T05:58:35;21.02;87.50
13091;DHT22;6611;52.604;13.438;2022-08-16T06:03:37;21.12;87.21
13091;DHT22;6611;52.604;13.438;2022-08-16T06:08:38;21.30;87.12
13091;DHT22;6611;52.604;13.438;2022-08-16T06:13:41;21.48;86.92
13091;DHT22;6611;52.604;13.438;2022-08-16T06:18:44;21.51;85.81
13091;DHT22;6611;52.604;13.438;2022-08-16T06:23:46;21.82;85.67
13091;DHT22;6611;52.604;13.438;2022-08-16T06:28:49;22.05;84.56
13091;DHT22;6611;52.604;13.438;2022-08-16T06:33:51;22.41;83.75
13091;DHT22;6611;52.604;13.438;2022-08-16T06:38:52;22.69;81.31
13091;DHT22;6611;52.604;13.438;2022-08-16T06:43:55;22.91;80.96
13091;DHT22;6611;52.604;13.438;2022-08-16T06:48:57;23.19;80.40
13091;DHT22;6611;52.604;13.438;2022-08-16T06:53:58;23.31;78.86
13091;DHT22;6611;52.604;13.438;2022-08-16T06:59:02;23.46;78.12
13091;DHT22;6611;52.604;13.438;2022-08-16T07:04:04;23.71;78.03
13091;DHT22;6611;52.604;13.438;2022-08-16T07:09:06;23.98;76.71
13091;DHT22;6611;52.604;13.438;2022-08-16T07:14:11;24.16;75.18
13091;DHT22;6611;52.604;13.438;2022-08-16T07:19:13;24.17;74.78
13091;DHT22;6611;52.604;13.438;2022-08-16T07:24:16;24.24;75.06
13091;DHT22;6611;52.604;13.438;2022-08-16T07:29:18;24.26;74.81
13091;DHT22;6611;52.604;13.438;2022-08-16T07:34:20;24.67;74.45
13091;DHT22;6611;52.604;13.438;2022-08-16T07:39:22;24.83;71.56
13091;DHT22;6611;52.604;13.438;2022-08-16T07:44:25;24.92;70.56
13091;DHT22;6611;52.604;13.438;2022-08-16T07:49:26;25.03;70.52
13091;DHT22;6611;52.604;13.438;2022-08-16T07:54:28;25.20;71.54
13091;DHT22;6611;52.604;13.438;2022-08-16T07:59:31;25.35;70.04
13091;DHT22;6611;52.604;13.438;2022-08-16T08:04:32;25.52;69.83
13091;DHT22;6611;52.604;13.438;2022-08-16T08:09:34;25.52;70.25
13091;DHT22;6611;52.604;13.438;2022-08-16T08:14:37;25.82;69.48
13091;DHT22;6611;52.604;13.438;2022-08-16T08:19:38;26.03;70.84
13091;DHT22;6611;52.604;13.438;2022-08-16T08:24:40;25.99;67.68
13091;DHT22;6611;52.604;13.438;2022-08-16T08:29:43;26.10;67.03
13091;DHT22;6611;52.604;13.438;2022-08-16T08:34:45;26.20;64.75
13091;DHT22;6611;52.604;13.438;2022-08-16T08:39:47;26.40;66.52
13091;DHT22;6611;52.604;13.438;2022-08-16T08:44:50;26.48;65.19
13091;DHT22;6611;52.604;13.438;2022-08-16T08:49:51;26.64;63.18
13091;DHT22;6611;52.604;13.438;2022-08-16T08:54:53;26.98;63.15
13091;DHT22;6611;52.604;13.438;2022-08-16T08:59:56;26.71;63.54
13091;DHT22;6611;52.604;13.438;2022-08-16T09:04:58;26.89;63.11
13091;DHT22;6611;52.604;13.438;2022-08-16T09:09:59;27.14;60.69
13091;DHT22;6611;52.604;13.438;2022-08-16T09:15:04;27.26;62.21
13091;DHT22;6611;52.604;13.438;2022-08-16T09:20:08;27.38;60.33
13091;DHT22;6611;52.604;13.438;2022-08-16T09:25:12;27.54;61.55
13091;DHT22;6611;52.604;13.438;2022-08-16T09:30:16;27.50;59.37
13091;DHT22;6611;52.604;13.438;2022-08-16T09:35:18;27.54;59.51
13091;DHT22;6611;52.604;13.438;2022-08-16T09:40:19;27.71;57.00
13091;DHT22;6611;52.604;13.438;2022-08-16T09:45:25;27.72;56.72
13091;DHT22;6611;52.604;13.438;2022-08-16T09:50:27;27.61;56.40
13091;DHT22;6611;52.604;13.438;2022-08-16T09:55:30;27.54;56.95
13091;DHT22;6611;52.604;13.438;2022-08-16T10:00:34;27.75;58.21
13091;DHT22;6611;52.604;13.438;2022-08-16T10:05:35;27.96;55.79
13091;DHT22;6611;52.604;13.438;2022-08-16T10:10:37;28.03;55.03
13091;DHT22;6611;52.604;13.438;2022-08-16T10:15:43;28.16;56.26
13091;DHT22;6611;52.604;13.438;2022-08-16T10:20:45;28.55;55.06
13091;DHT22;6611;52.604;13.438;2022-08-16T10:25:47;28.64;54.52
13091;DHT22;6611;52.604;13.438;2022-08-16T10:30:50;28.69;52.86
13091;DHT22;6611;52.604;13.438;2022-08-16T10:35:52;28.72;54.38
13091;DHT22;6611;52.604;13.438;2022-08-16T10:40:53;28.98;51.58
13091;DHT22;6611;52.604;13.438;2022-08-16T10:45:57;29.14;50.87
13091;DHT22;6611;52.604;13.438;2022-08-16T10:50:59;29.37;48.99
13091;DHT22;6611;52.604;13.438;2022-08-16T10:56:04;29.07;50.49
13091;DHT22;6611;52.604;13.438;2022-08-16T11:01:09;28.65;52.96
13091;DHT22;6611;52.604;13.438;2022-08-16T11:06:11;28.74;51.41
13091;DHT22;6611;52.604;13.438;2022-08-16T11:11:13;28.85;51.14
13091;DHT22;6611;52.604;13.438;2022-08-16T11:16:16;29.02;48.84
13091;DHT22;6611;52.604;13.438;2022-08-16T11:21:18;29.34;49.30
13091;DHT22;6611;52.604;13.438;2022-08-16T11:26:22;29.58;46.65
13091;DHT22;6611;52.604;13.438;2022-08-16T11:31:25;29.99;47.30
13091;DHT22;6611;52.604;13.438;2022-08-16T11:36:27;30.28;45.49
13091;DHT22;6611;52.604;13.438;2022-08-16T11:41:29;30.48;45.82
13091;DHT22;6611;52.604;13.438;2022-08-16T11:46:34;30.69;46.26
13091;DHT22;6611;52.604;13.438;2022-08-16T11:51:36;29.92;45.81
13091;DHT22;6611;52.604;13.438;2022-08-16T11:56:38;29.65;47.63
13091;DHT22;6611;52.604;13.438;2022-08-16T12:01:41;30.21;47.36
13091;DHT22;6611;52.604;13.438;2022-08-16T12:06:43;30.75;46.06
13091;DHT22;6611;52.604;13.438;2022-08-16T12:11:44;30.82;43.33
13091;DHT22;6611;52.604;13.438;2022-08-16T12:16:47;30.96;43.81
13091;DHT22;6611;52.604;13.438;2022-08-16T12:21:49;30.37;44.62
13091;DHT22;6611;52.604;13.438;2022-08-16T12:26:51;30.10;46.69
13091;DHT22;6611;52.604;13.438;2022-08-16T12:31:54;30.48;46.22
13091;DHT22;6611;52.604;13.438;2022-08-16T12:36:57;30.03;45.92
13091;DHT22;6611;52.604;13.438;2022-08-16T12:42:01;29.48;47.27
13091;DHT22;6611;52.604;13.438;2022-08-16T12:47:04;29.14;47.76
13091;DHT22;6611;52.604;13.438;2022-08-16T12:52:24;29.89;45.30
13091;DHT22;6611;52.604;13.438;2022-08-16T12:57:27;30.59;44.47
13091;DHT22;6611;52.604;13.438;2022-08-16T13:02:30;30.62;44.54
13091;DHT22;6611;52.604;13.438;2022-08-16T13:07:32;31.02;44.57
13091;DHT22;6611;52.604;13.438;2022-08-16T13:12:34;30.61;44.65
13091;DHT22;6611;52.604;13.438;2022-08-16T13:17:41;30.26;45.54
13091;DHT22;6611;52.604;13.438;2022-08-16T13:22:45;29.75;45.29
13091;DHT22;6611;52.604;13.438;2022-08-16T13:27:48;29.71;45.79
13091;DHT22;6611;52.604;13.438;2022-08-16T13:32:51;29.93;45.55
13091;DHT22;6611;52.604;13.438;2022-08-16T13:37:53;29.88;47.18
13091;DHT22;6611;52.604;13.438;2022-08-16T13:42:55;29.90;46.22
13091;DHT22;6611;52.604;13.438;2022-08-16T13:47:58;30.33;45.60
13091;DHT22;6611;52.604;13.438;2022-08-16T13:53:00;30.52;44.74
13091;DHT22;6611;52.604;13.438;2022-08-16T13:58:01;30.45;43.86
13091;DHT22;6611;52.604;13.438;2022-08-16T14:03:05;29.88;45.15
13091;DHT22;6611;52.604;13.438;2022-08-16T14:08:07;29.79;45.46
13091;DHT22;6611;52.604;13.438;2022-08-16T14:13:09;29.71;45.20
13091;DHT22;6611;52.604;13.438;2022-08-16T14:18:12;30.20;45.66
13091;DHT22;6611;52.604;13.438;2022-08-16T14:23:14;30.54;44.12
13091;DHT22;6611;52.604;13.438;2022-08-16T14:28:16;30.64;42.47
13091;DHT22;6611;52.604;13.438;2022-08-16T14:33:19;30.93;42.97
13091;DHT22;6611;52.604;13.438;2022-08-16T14:38:21;30.93;43.63
13091;DHT22;6611;52.604;13.438;2022-08-16T14:43:24;30.67;42.47
13091;DHT22;6611;52.604;13.438;2022-08-16T14:48:27;30.35;42.86
13091;DHT22;6611;52.604;13.438;2022-08-16T14:53:29;29.83;42.47
13091;DHT22;6611;52.604;13.438;2022-08-16T14:58:30;29.82;43.52
13091;DHT22;6611;52.604;13.438;2022-08-16T15:03:33;29.99;44.31
13091;DHT22;6611;52.604;13.438;2022-08-16T15:08:35;30.27;45.15
13091;DHT22;6611;52.604;13.438;2022-08-16T15:13:36;30.41;43.36
13091;DHT22;6611;52.604;13.438;2022-08-16T15:18:41;30.18;42.21
13091;DHT22;6611;52.604;13.438;2022-08-16T15:23:43;30.07;40.09
13091;DHT22;6611;52.604;13.438;2022-08-16T15:28:44;30.34;42.59
13091;DHT22;6611;52.604;13.438;2022-08-16T15:33:48;30.37;41.62
13091;DHT22;6611;52.604;13.438;2022-08-16T15:38:51;30.26;40.73
13091;DHT22;6611;52.604;13.438;2022-08-16T15:43:53;30.27;40.88
13091;DHT22;6611;52.604;13.438;2022-08-16T15:48:56;30.41;39.98
13091;DHT22;6611;52.604;13.438;2022-08-16T15:53:58;30.40;40.37
13091;DHT22;6611;52.604;13.438;2022-08-16T15:58:59;30.41;40.96
13091;DHT22;6611;52.604;13.438;2022-08-16T16:04:03;30.21;40.83
13091;DHT22;6611;52.604;13.438;2022-08-16T16:09:04;30.09;41.54
13091;DHT22;6611;52.604;13.438;2022-08-16T16:14:06;30.16;40.39
13091;DHT22;6611;52.604;13.438;2022-08-16T16:19:09;30.03;41.80
13091;DHT22;6611;52.604;13.438;2022-08-16T16:24:11;29.92;40.03
13091;DHT22;6611;52.604;13.438;2022-08-16T16:29:12;29.86;40.87
13091;DHT22;6611;52.604;13.438;2022-08-16T16:34:15;29.83;41.68
13091;DHT22;6611;52.604;13.438;2022-08-16T16:39:17;29.61;41.65
13091;DHT22;6611;52.604;13.438;2022-08-16T16:44:18;29.30;43.67
13091;DHT22;6611;52.604;13.438;2022-08-16T16:49:21;29.23;43.85
13091;DHT22;6611;52.604;13.438;2022-08-16T16:54:23;29.16;42.40
13091;DHT22;6611;52.604;13.438;2022-08-16T16:59:25;28.99;43.42
13091;DHT22;6611;52.604;13.438;2022-08-16T17:04:28;28.92;44.99
13091;DHT22;6611;52.604;13.438;2022-08-16T17:09:29;28.98;43.70
13091;DHT22;6611;52.604;13.438;2022-08-16T17:14:31;29.00;43.40
13091;DHT22;6611;52.604;13.438;2022-08-16T17:19:36;28.91;43.44
13091;DHT22;6611;52.604;13.438;2022-08-16T17:24:38;28.75;45.49
13091;DHT22;6611;52.604;13.438;2022-08-16T17:29:40;28.68;44.56
13091;DHT22;6611;52.604;13.438;2022-08-16T17:34:43;28.40;46.67
13091;DHT22;6611;52.604;13.438;2022-08-16T17:39:45;28.23;47.30
13091;DHT22;6611;52.604;13.438;2022-08-16T17:44:46;27.99;48.21
13091;DHT22;6611;52.604;13.438;2022-08-16T17:49:49;27.72;49.16
13091;DHT22;6611;52.604;13.438;2022-08-16T17:54:51;27.44;50.25
13091;DHT22;6611;52.604;13.438;2022-08-16T17:59:53;27.19;51.40
13091;DHT22;6611;52.604;13.438;2022-08-16T18:04:55;26.89;52.65
13091;DHT22;6611;52.604;13.438;2022-08-16T18:09:57;26.72;53.64
13091;DHT22;6611;52.604;13.438;2022-08-16T18:15:00;26.48;54.03
13091;DHT22;6611;52.604;13.438;2022-08-16T18:20:05;26.26;55.29
13091;DHT22;6611;52.604;13.438;2022-08-16T18:25:07;26.03;55.70
13091;DHT22;6611;52.604;13.438;2022-08-16T18:30:10;25.79;55.77
13091;DHT22;6611;52.604;13.438;2022-08-16T18:35:18;25.60;56.29
13091;DHT22;6611;52.604;13.438;2022-08-16T18:40:20;25.40;56.76
13091;DHT22;6611;52.604;13.438;2022-08-16T18:45:22;25.20;57.58
13091;DHT22;6611;52.604;13.438;2022-08-16T18:50:26;25.05;58.26
13091;DHT22;6611;52.604;13.438;2022-08-16T18:55:29;24.93;59.01
13091;DHT22;6611;52.604;13.438;2022-08-16T19:00:33;24.71;59.16
13091;DHT22;6611;52.604;13.438;2022-08-16T19:05:38;24.51;59.02
13091;DHT22;6611;52.604;13.438;2022-08-16T19:10:42;24.38;59.59
13091;DHT22;6611;52.604;13.438;2022-08-16T19:15:44;24.31;60.80
13091;DHT22;6611;52.604;13.438;2022-08-16T19:20:48;24.24;61.00
13091;DHT22;6611;52.604;13.438;2022-08-16T19:25:53;24.14;61.26
13091;DHT22;6611;52.604;13.438;2022-08-16T19:30:55;23.98;61.76
13091;DHT22;6611;52.604;13.438;2022-08-16T19:35:58;23.78;62.40
13091;DHT22;6611;52.604;13.438;2022-08-16T19:41:00;23.61;63.31
13091;DHT22;6611;52.604;13.438;2022-08-16T19:46:02;23.44;63.87
13091;DHT22;6611;52.604;13.438;2022-08-16T19:51:05;23.39;64.15
13091;DHT22;6611;52.604;13.438;2022-08-16T19:56:07;23.33;64.69
13091;DHT22;6611;52.604;13.438;2022-08-16T20:01:09;23.19;65.55
13091;DHT22;6611;52.604;13.438;2022-08-16T20:06:13;23.06;65.65
13091;DHT22;6611;52.604;13.438;2022-08-16T20:11:15;22.91;66.51
13091;DHT22;6611;52.604;13.438;2022-08-16T20:16:17;22.78;67.36
13091;DHT22;6611;52.604;13.438;2022-08-16T20:21:20;22.75;67.84
13091;DHT22;6611;52.604;13.438;2022-08-16T20:26:21;22.63;68.23
13091;DHT22;6611;52.604;13.438;2022-08-16T20:31:27;22.54;69.12
13091;DHT22;6611;52.604;13.438;2022-08-16T20:36:30;22.46;69.67
13091;DHT22;6611;52.604;13.438;2022-08-16T20:41:32;22.32;70.30
13091;DHT22;6611;52.604;13.438;2022-08-16T20:46:33;22.23;70.23
13091;DHT22;6611;52.604;13.438;2022-08-16T20:51:37;22.21;70.20
13091;DHT22;6611;52.604;13.438;2022-08-16T20:56:39;22.09;70.75
13091;DHT22;6611;52.604;13.438;2022-08-16T21:01:41;22.01;70.94
13091;DHT22;6611;52.604;13.438;2022-08-16T21:06:44;21.99;70.90
13091;DHT22;6611;52.604;13.438;2022-08-16T21:11:45;21.91;71.62
13091;DHT22;6611;52.604;13.438;2022-08-16T21:16:47;21.91;71.64
13091;DHT22;6611;52.604;13.438;2022-08-16T21:21:50;21.95;71.20
13091;DHT22;6611;52.604;13.438;2022-08-16T21:26:51;21.82;71.85
13091;DHT22;6611;52.604;13.438;2022-08-16T21:31:53;21.61;72.76
13091;DHT22;6611;52.604;13.438;2022-08-16T21:36:56;21.48;73.36
13091;DHT22;6611;52.604;13.438;2022-08-16T21:41:57;21.51;73.50
13091;DHT22;6611;52.604;13.438;2022-08-16T21:46:59;21.50;73.54
13091;DHT22;6611;52.604;13.438;2022-08-16T21:52:03;21.48;73.50
13091;DHT22;6611;52.604;13.438;2022-08-16T21:57:04;21.46;73.54
13091;DHT22;6611;52.604;13.438;2022-08-16T22:02:06;21.33;73.67
13091;DHT22;6611;52.604;13.438;2022-08-16T22:07:09;21.20;74.37
13091;DHT22;6611;52.604;13.438;2022-08-16T22:12:17;21.20;74.33
13091;DHT22;6611;52.604;13.438;2022-08-16T22:17:19;21.19;74.47
13091;DHT22;6611;52.604;13.438;2022-08-16T22:22:22;21.15;74.67
13091;DHT22;6611;52.604;13.438;2022-08-16T22:27:25;20.95;75.78
13091;DHT22;6611;52.604;13.438;2022-08-16T22:32:26;20.77;76.19
13091;DHT22;6611;52.604;13.438;2022-08-16T22:37:29;20.67;76.35
13091;DHT22;6611;52.604;13.438;2022-08-16T22:42:31;20.74;76.43
13091;DHT22;6611;52.604;13.438;2022-08-16T22:47:32;20.72;76.35
13091;DHT22;6611;52.604;13.438;2022-08-16T22:52:43;20.55;76.78
13091;DHT22;6611;52.604;13.438;2022-08-16T22:57:45;20.45;76.95
13091;DHT22;6611;52.604;13.438;2022-08-16T23:02:55;20.43;76.89
13091;DHT22;6611;52.604;13.438;2022-08-16T23:07:59;20.37;77.14
13091;DHT22;6611;52.604;13.438;2022-08-16T23:13:04;20.32;77.40
13091;DHT22;6611;52.604;13.438;2022-08-16T23:18:06;20.33;77.45
13091;DHT22;6611;52.604;13.438;2022-08-16T23:23:11;20.33;77.23
13091;DHT22;6611;52.604;13.438;2022-08-16T23:28:13;20.26;77.24
13091;DHT22;6611;52.604;13.438;2022-08-16T23:33:17;20.29;77.05
13091;DHT22;6611;52.604;13.438;2022-08-16T23:38:23;20.17;77.65
13091;DHT22;6611;52.604;13.438;2022-08-16T23:43:27;20.12;78.11
13091;DHT22;6611;52.604;13.438;2022-08-16T23:48:33;19.96;78.84
13091;DHT22;6611;52.604;13.438;2022-08-16T23:53:38;19.89;78.88
13091;DHT22;6611;52.604;13.438;2022-08-16T23:58:41;19.84;79.20
